Details From YBTL - Townsville Intl
To YBMA - Mount Isa
Flight Number -
Tags decoded
Created
Modified
Stats Distance 420 nm / 777 km
Max Altitude 0 ft / 0 m
Waypoints 7
Social Downloads 5
Likes 0
Share VATSIM

Download

Looking for another format? Having issues loading an existing format? Contact us
Advertisement - Login to hide

Notes

Requested: YBTL TL J184 PENAR YBMA

Route

YBTL TL J184 PENAR YBMA

ID Type Via Altitude (ft/m) Position (lat/lon) Dist (leg/tot) Name
O YBTL APT - 0 / 0 -19.25130 / 146.76500 - / 0 nm Townsville Intl
TL DME - 0 / 0 -19.24500 / 146.75800 0 / 0 nm TOWNSVILLE VOR-DME
ALBEE FIX J184 (AWY-HI) 0 / 0 -19.37830 / 146.14000 35 / 36 nm
WISKA FIX J184 (AWY-HI) 0 / 0 -19.57540 / 145.20800 54 / 90 nm
RUSSO FIX J184 (AWY-HI) 0 / 0 -19.98300 / 143.19000 116 / 207 nm
PENAR FIX J184 (AWY-HI) 0 / 0 -20.35460 / 141.23200 112 / 319 nm
O YBMA APT - 0 / 0 -20.66640 / 139.48800 99 / 419 nm Mount Isa

Altitude Profile

Advertisement - Login to hide

Weather


0- 5 10 15 20 25 30 35+ Temperature / °C

Clouds and Precipitation
Forecast for 2019-11-21 12:00 UTC. Updated 4 hours ago

Ground ~20,000 ft ~40,000 ft Winds

YBTL

Details ICAO YBTL (TSV)
Name Townsville Intl
Region Australia
Timezone Australia/Brisbane (UTC+10.0)
Stats Elevation 18 ft / 5 m (AMSL)
Location -19.251300° 146.765000°
Runways 2
Magnetic Variation 7.334° E

METAR

YBTL 211400Z AUTO 12012KT 9999 // SCT035 BKN046 25/18 Q1013

Decode

TAF

TAF YBTL 211108Z 2112/2212 09010KT 9999 FEW025 SCT035 FM220000 06017KT 9999 FEW035 SCT050 FM220900 08010KT 9999 SCT022

Decode

Departure Runways

ID Width Length Bearing (true/mag) Surface Threshold Overrun Markings Lighting
01 148 ft / 45 m 8,022 ft / 2,445 m 23.99° / 16.66° ASPHALT 0 ft / 0 m 0 ft / 0 m PREC-APP CENTERLINE EDGE THRESHOLD SALS TDZ
07 98 ft / 30 m 3,607 ft / 1,099 m 73.73° / 66.40° ASPHALT 0 ft / 0 m 0 ft / 0 m PREC-APP EDGE THRESHOLD
19 148 ft / 45 m 8,022 ft / 2,445 m 203.99° / 196.66° ASPHALT 0 ft / 0 m 0 ft / 0 m PREC-APP CENTERLINE EDGE THRESHOLD
25 98 ft / 30 m 3,607 ft / 1,099 m 253.73° / 246.39° ASPHALT 0 ft / 0 m 0 ft / 0 m PREC-APP EDGE THRESHOLD

YBMA

Details ICAO YBMA (ISA)
Name Mount Isa
Region Australia
Timezone Australia/Brisbane (UTC+10.0)
Stats Elevation 1,121 ft / 342 m (AMSL)
Location -20.666400° 139.488000°
Runways 1
Magnetic Variation 5.599° E

METAR

YBMA 211400Z AUTO 03012KT 9999 // NCD 29/14 Q1011

Decode

TAF

TAF AMD YBMA 211034Z 2111/2200 01010KT CAVOK PROB30 TEMPO 2111/2200 VRB20G40KT 2000 TSRA SCT040 FEW100CB

Decode

Destination Runways

ID Width Length Bearing (true/mag) Surface Threshold Overrun Markings Lighting
16 148 ft / 45 m 8,859 ft / 2,700 m 167.80° / 162.20° ASPHALT 210 ft / 64 m 79 ft / 24 m APP EDGE THRESHOLD
34 148 ft / 45 m 8,859 ft / 2,700 m 347.80° / 342.20° ASPHALT 213 ft / 65 m 49 ft / 15 m APP EDGE THRESHOLD

Popular Alternatives